sensor_id;sensor_type;location;lat;lon;timestamp;temperature;humidity
70762;DHT22;58360;0.000;0.000;2022-10-28T00:02:21;17.00;82.90
70762;DHT22;58360;0.000;0.000;2022-10-28T00:04:46;17.00;82.90
70762;DHT22;58360;0.000;0.000;2022-10-28T00:07:12;17.00;82.80
70762;DHT22;58360;0.000;0.000;2022-10-28T00:09:37;17.10;82.50
70762;DHT22;58360;0.000;0.000;2022-10-28T00:12:03;17.00;82.70
70762;DHT22;58360;0.000;0.000;2022-10-28T00:14:29;17.10;82.50
70762;DHT22;58360;0.000;0.000;2022-10-28T00:16:54;17.10;82.40
70762;DHT22;58360;0.000;0.000;2022-10-28T00:19:20;17.10;82.40
70762;DHT22;58360;0.000;0.000;2022-10-28T00:21:46;17.10;82.40
70762;DHT22;58360;0.000;0.000;2022-10-28T00:24:12;17.10;82.40
70762;DHT22;58360;0.000;0.000;2022-10-28T00:26:41;17.00;82.40
70762;DHT22;58360;0.000;0.000;2022-10-28T00:29:18;17.00;82.30
70762;DHT22;58360;0.000;0.000;2022-10-28T00:31:44;17.00;82.40
70762;DHT22;58360;0.000;0.000;2022-10-28T00:34:14;16.90;82.50
70762;DHT22;58360;0.000;0.000;2022-10-28T00:36:42;16.90;82.50
70762;DHT22;58360;0.000;0.000;2022-10-28T00:39:20;16.90;82.50
70762;DHT22;58360;0.000;0.000;2022-10-28T00:41:52;16.90;82.40
70762;DHT22;58360;0.000;0.000;2022-10-28T00:44:58;16.90;82.40
70762;DHT22;58360;0.000;0.000;2022-10-28T00:48:03;16.80;82.60
70762;DHT22;58360;0.000;0.000;2022-10-28T00:50:45;16.80;82.60
70762;DHT22;58360;0.000;0.000;2022-10-28T00:53:21;16.90;82.30
70762;DHT22;58360;0.000;0.000;2022-10-28T00:55:48;16.80;82.70
70762;DHT22;58360;0.000;0.000;2022-10-28T00:58:14;16.80;82.60
70762;DHT22;58360;0.000;0.000;2022-10-28T01:00:40;16.80;82.60
70762;DHT22;58360;0.000;0.000;2022-10-28T01:03:07;16.80;82.60
70762;DHT22;58360;0.000;0.000;2022-10-28T01:05:35;16.70;82.60
70762;DHT22;58360;0.000;0.000;2022-10-28T01:08:04;16.80;82.50
70762;DHT22;58360;0.000;0.000;2022-10-28T01:10:56;16.80;82.70
70762;DHT22;58360;0.000;0.000;2022-10-28T01:16:23;16.60;83.30
70762;DHT22;58360;0.000;0.000;2022-10-28T01:27:23;16.50;83.60
70762;DHT22;58360;0.000;0.000;2022-10-28T01:41:09;16.50;83.40
70762;DHT22;58360;0.000;0.000;2022-10-28T01:49:55;16.50;83.40
70762;DHT22;58360;0.000;0.000;2022-10-28T01:52:24;16.60;83.50
70762;DHT22;58360;0.000;0.000;2022-10-28T01:55:03;16.60;83.40
70762;DHT22;58360;0.000;0.000;2022-10-28T01:57:32;16.60;83.50
70762;DHT22;58360;0.000;0.000;2022-10-28T02:00:00;16.60;83.30
70762;DHT22;58360;0.000;0.000;2022-10-28T02:02:33;16.60;83.20
70762;DHT22;58360;0.000;0.000;2022-10-28T02:05:05;16.60;83.30
70762;DHT22;58360;0.000;0.000;2022-10-28T02:07:31;16.50;83.20
70762;DHT22;58360;0.000;0.000;2022-10-28T02:10:09;16.50;83.30
70762;DHT22;58360;0.000;0.000;2022-10-28T02:12:38;16.50;83.10
70762;DHT22;58360;0.000;0.000;2022-10-28T02:20:48;16.50;83.20
70762;DHT22;58360;0.000;0.000;2022-10-28T02:26:24;16.50;83.80
70762;DHT22;58360;0.000;0.000;2022-10-28T02:29:04;16.50;83.20
70762;DHT22;58360;0.000;0.000;2022-10-28T02:31:35;16.40;83.30
70762;DHT22;58360;0.000;0.000;2022-10-28T02:34:07;16.40;83.30
70762;DHT22;58360;0.000;0.000;2022-10-28T02:36:34;16.40;83.20
70762;DHT22;58360;0.000;0.000;2022-10-28T02:39:03;16.40;83.20
70762;DHT22;58360;0.000;0.000;2022-10-28T02:41:35;16.30;83.50
70762;DHT22;58360;0.000;0.000;2022-10-28T02:44:12;16.20;83.60
70762;DHT22;58360;0.000;0.000;2022-10-28T02:46:41;16.20;83.80
70762;DHT22;58360;0.000;0.000;2022-10-28T02:49:10;16.30;83.20
70762;DHT22;58360;0.000;0.000;2022-10-28T02:51:43;16.20;83.80
70762;DHT22;58360;0.000;0.000;2022-10-28T02:56:59;16.10;83.60
70762;DHT22;58360;0.000;0.000;2022-10-28T02:59:27;16.20;83.40
70762;DHT22;58360;0.000;0.000;2022-10-28T03:01:53;16.10;83.50
70762;DHT22;58360;0.000;0.000;2022-10-28T03:04:19;16.10;83.50
70762;DHT22;58360;0.000;0.000;2022-10-28T03:06:45;16.10;83.70
70762;DHT22;58360;0.000;0.000;2022-10-28T03:09:10;16.10;83.80
70762;DHT22;58360;0.000;0.000;2022-10-28T03:11:36;16.00;83.90
70762;DHT22;58360;0.000;0.000;2022-10-28T03:14:02;15.90;84.20
70762;DHT22;58360;0.000;0.000;2022-10-28T03:16:27;16.00;84.10
70762;DHT22;58360;0.000;0.000;2022-10-28T03:18:53;16.00;83.80
70762;DHT22;58360;0.000;0.000;2022-10-28T03:21:19;16.00;83.70
70762;DHT22;58360;0.000;0.000;2022-10-28T03:23:45;16.00;83.80
70762;DHT22;58360;0.000;0.000;2022-10-28T03:26:11;16.00;83.90
70762;DHT22;58360;0.000;0.000;2022-10-28T03:28:36;15.90;84.30
70762;DHT22;58360;0.000;0.000;2022-10-28T03:31:02;15.90;84.20
70762;DHT22;58360;0.000;0.000;2022-10-28T03:33:28;16.00;84.30
70762;DHT22;58360;0.000;0.000;2022-10-28T03:35:53;16.00;84.20
70762;DHT22;58360;0.000;0.000;2022-10-28T03:38:19;16.00;84.80
70762;DHT22;58360;0.000;0.000;2022-10-28T03:40:49;16.00;84.10
70762;DHT22;58360;0.000;0.000;2022-10-28T03:43:15;16.10;83.90
70762;DHT22;58360;0.000;0.000;2022-10-28T03:45:41;16.10;83.90
70762;DHT22;58360;0.000;0.000;2022-10-28T03:48:06;16.10;83.90
70762;DHT22;58360;0.000;0.000;2022-10-28T03:50:32;16.10;83.80
70762;DHT22;58360;0.000;0.000;2022-10-28T03:52:58;16.10;83.90
70762;DHT22;58360;0.000;0.000;2022-10-28T03:55:23;16.10;83.90
70762;DHT22;58360;0.000;0.000;2022-10-28T03:57:50;16.10;84.00
70762;DHT22;58360;0.000;0.000;2022-10-28T04:00:16;16.10;83.80
70762;DHT22;58360;0.000;0.000;2022-10-28T04:02:42;16.10;83.90
70762;DHT22;58360;0.000;0.000;2022-10-28T04:05:08;16.10;83.90
70762;DHT22;58360;0.000;0.000;2022-10-28T04:07:34;16.10;84.00
70762;DHT22;58360;0.000;0.000;2022-10-28T04:09:59;16.20;83.70
70762;DHT22;58360;0.000;0.000;2022-10-28T04:12:25;16.10;83.50
70762;DHT22;58360;0.000;0.000;2022-10-28T04:14:51;16.10;83.40
70762;DHT22;58360;0.000;0.000;2022-10-28T04:17:17;16.20;83.40
70762;DHT22;58360;0.000;0.000;2022-10-28T04:19:43;16.20;83.10
70762;DHT22;58360;0.000;0.000;2022-10-28T04:22:09;16.20;83.30
70762;DHT22;58360;0.000;0.000;2022-10-28T04:24:34;16.10;83.50
70762;DHT22;58360;0.000;0.000;2022-10-28T04:27:00;16.10;83.70
70762;DHT22;58360;0.000;0.000;2022-10-28T04:29:25;16.00;84.10
70762;DHT22;58360;0.000;0.000;2022-10-28T04:31:51;15.90;84.40
70762;DHT22;58360;0.000;0.000;2022-10-28T04:34:17;16.00;84.30
70762;DHT22;58360;0.000;0.000;2022-10-28T04:36:42;15.90;84.70
70762;DHT22;58360;0.000;0.000;2022-10-28T04:39:09;15.90;84.90
70762;DHT22;58360;0.000;0.000;2022-10-28T04:41:34;15.90;84.80
70762;DHT22;58360;0.000;0.000;2022-10-28T04:44:00;16.00;84.70
70762;DHT22;58360;0.000;0.000;2022-10-28T04:46:26;16.00;84.70
70762;DHT22;58360;0.000;0.000;2022-10-28T04:48:51;16.00;84.60
70762;DHT22;58360;0.000;0.000;2022-10-28T04:51:17;16.00;84.60
70762;DHT22;58360;0.000;0.000;2022-10-28T04:53:42;16.00;84.50
70762;DHT22;58360;0.000;0.000;2022-10-28T04:56:08;16.10;84.10
70762;DHT22;58360;0.000;0.000;2022-10-28T04:58:34;16.20;84.20
70762;DHT22;58360;0.000;0.000;2022-10-28T05:01:07;16.10;84.00
70762;DHT22;58360;0.000;0.000;2022-10-28T05:03:33;16.20;84.10
70762;DHT22;58360;0.000;0.000;2022-10-28T05:05:59;16.20;84.20
70762;DHT22;58360;0.000;0.000;2022-10-28T05:08:25;16.10;84.30
70762;DHT22;58360;0.000;0.000;2022-10-28T05:10:51;16.00;84.40
70762;DHT22;58360;0.000;0.000;2022-10-28T05:13:17;15.90;84.40
70762;DHT22;58360;0.000;0.000;2022-10-28T05:15:43;15.90;84.70
70762;DHT22;58360;0.000;0.000;2022-10-28T05:18:09;15.90;84.70
70762;DHT22;58360;0.000;0.000;2022-10-28T05:20:35;15.90;84.60
70762;DHT22;58360;0.000;0.000;2022-10-28T05:23:01;16.00;84.90
70762;DHT22;58360;0.000;0.000;2022-10-28T05:25:26;15.90;84.50
70762;DHT22;58360;0.000;0.000;2022-10-28T05:27:52;15.90;84.80
70762;DHT22;58360;0.000;0.000;2022-10-28T05:30:18;15.90;84.70
70762;DHT22;58360;0.000;0.000;2022-10-28T05:32:44;16.00;84.40
70762;DHT22;58360;0.000;0.000;2022-10-28T05:35:10;16.00;84.40
70762;DHT22;58360;0.000;0.000;2022-10-28T05:37:36;16.10;84.30
70762;DHT22;58360;0.000;0.000;2022-10-28T05:40:02;16.20;83.70
70762;DHT22;58360;0.000;0.000;2022-10-28T05:42:28;16.00;84.30
70762;DHT22;58360;0.000;0.000;2022-10-28T05:44:54;15.90;84.60
70762;DHT22;58360;0.000;0.000;2022-10-28T05:47:19;15.80;84.90
70762;DHT22;58360;0.000;0.000;2022-10-28T05:49:45;15.70;85.70
70762;DHT22;58360;0.000;0.000;2022-10-28T05:52:11;15.80;85.30
70762;DHT22;58360;0.000;0.000;2022-10-28T05:54:36;15.80;85.30
70762;DHT22;58360;0.000;0.000;2022-10-28T05:57:02;15.90;84.70
70762;DHT22;58360;0.000;0.000;2022-10-28T05:59:27;16.00;84.30
70762;DHT22;58360;0.000;0.000;2022-10-28T06:01:53;16.00;84.30
70762;DHT22;58360;0.000;0.000;2022-10-28T06:04:19;15.90;84.60
70762;DHT22;58360;0.000;0.000;2022-10-28T06:06:44;15.90;84.70
70762;DHT22;58360;0.000;0.000;2022-10-28T06:09:10;15.80;84.50
70762;DHT22;58360;0.000;0.000;2022-10-28T06:11:35;15.80;84.80
70762;DHT22;58360;0.000;0.000;2022-10-28T06:14:01;15.80;84.70
70762;DHT22;58360;0.000;0.000;2022-10-28T06:16:27;15.70;84.80
70762;DHT22;58360;0.000;0.000;2022-10-28T06:18:52;15.70;85.00
70762;DHT22;58360;0.000;0.000;2022-10-28T06:21:18;15.80;85.20
70762;DHT22;58360;0.000;0.000;2022-10-28T06:23:45;15.90;85.20
70762;DHT22;58360;0.000;0.000;2022-10-28T06:26:12;15.90;85.00
70762;DHT22;58360;0.000;0.000;2022-10-28T06:28:38;16.00;84.70
70762;DHT22;58360;0.000;0.000;2022-10-28T06:31:06;16.10;84.40
70762;DHT22;58360;0.000;0.000;2022-10-28T06:33:33;16.10;84.40
70762;DHT22;58360;0.000;0.000;2022-10-28T06:36:00;16.20;84.00
70762;DHT22;58360;0.000;0.000;2022-10-28T06:38:26;16.20;83.80
70762;DHT22;58360;0.000;0.000;2022-10-28T06:40:53;16.20;83.60
70762;DHT22;58360;0.000;0.000;2022-10-28T06:43:19;16.30;83.70
70762;DHT22;58360;0.000;0.000;2022-10-28T06:45:44;16.30;83.90
70762;DHT22;58360;0.000;0.000;2022-10-28T06:48:18;16.30;83.90
70762;DHT22;58360;0.000;0.000;2022-10-28T06:50:43;16.40;83.40
70762;DHT22;58360;0.000;0.000;2022-10-28T06:53:09;16.40;83.20
70762;DHT22;58360;0.000;0.000;2022-10-28T06:55:35;16.40;83.40
70762;DHT22;58360;0.000;0.000;2022-10-28T06:58:02;16.50;83.00
70762;DHT22;58360;0.000;0.000;2022-10-28T07:00:28;16.50;82.90
70762;DHT22;58360;0.000;0.000;2022-10-28T07:02:55;16.60;82.80
70762;DHT22;58360;0.000;0.000;2022-10-28T07:05:21;16.80;81.80
70762;DHT22;58360;0.000;0.000;2022-10-28T07:07:48;16.90;81.40
70762;DHT22;58360;0.000;0.000;2022-10-28T07:10:13;16.90;81.60
70762;DHT22;58360;0.000;0.000;2022-10-28T07:12:40;17.00;80.90
70762;DHT22;58360;0.000;0.000;2022-10-28T07:15:07;17.20;80.50
70762;DHT22;58360;0.000;0.000;2022-10-28T07:17:33;17.30;80.00
70762;DHT22;58360;0.000;0.000;2022-10-28T07:19:59;17.30;80.60
70762;DHT22;58360;0.000;0.000;2022-10-28T07:22:24;17.40;80.10
70762;DHT22;58360;0.000;0.000;2022-10-28T07:24:50;17.40;80.00
70762;DHT22;58360;0.000;0.000;2022-10-28T07:27:15;17.50;80.10
70762;DHT22;58360;0.000;0.000;2022-10-28T07:29:41;17.60;79.60
70762;DHT22;58360;0.000;0.000;2022-10-28T07:32:07;17.60;79.50
70762;DHT22;58360;0.000;0.000;2022-10-28T07:34:33;17.60;79.70
70762;DHT22;58360;0.000;0.000;2022-10-28T07:36:58;17.50;80.50
70762;DHT22;58360;0.000;0.000;2022-10-28T07:39:24;17.60;80.00
70762;DHT22;58360;0.000;0.000;2022-10-28T07:41:50;17.60;79.50
70762;DHT22;58360;0.000;0.000;2022-10-28T07:44:15;17.80;78.90
70762;DHT22;58360;0.000;0.000;2022-10-28T07:46:41;17.80;79.10
70762;DHT22;58360;0.000;0.000;2022-10-28T07:49:07;17.70;79.20
70762;DHT22;58360;0.000;0.000;2022-10-28T07:51:32;17.80;79.50
70762;DHT22;58360;0.000;0.000;2022-10-28T07:53:58;17.80;79.00
70762;DHT22;58360;0.000;0.000;2022-10-28T07:56:24;17.80;79.50
70762;DHT22;58360;0.000;0.000;2022-10-28T07:58:50;17.90;79.40
70762;DHT22;58360;0.000;0.000;2022-10-28T08:01:18;17.90;79.80
70762;DHT22;58360;0.000;0.000;2022-10-28T08:03:44;18.00;78.80
70762;DHT22;58360;0.000;0.000;2022-10-28T08:06:16;18.10;78.80
70762;DHT22;58360;0.000;0.000;2022-10-28T08:08:44;18.20;78.30
70762;DHT22;58360;0.000;0.000;2022-10-28T08:11:17;18.20;78.50
70762;DHT22;58360;0.000;0.000;2022-10-28T08:13:49;18.20;78.10
70762;DHT22;58360;0.000;0.000;2022-10-28T08:16:15;18.30;78.80
70762;DHT22;58360;0.000;0.000;2022-10-28T08:18:41;18.40;78.60
70762;DHT22;58360;0.000;0.000;2022-10-28T08:21:08;18.50;78.30
70762;DHT22;58360;0.000;0.000;2022-10-28T08:23:34;18.60;78.00
70762;DHT22;58360;0.000;0.000;2022-10-28T08:26:01;18.60;78.20
70762;DHT22;58360;0.000;0.000;2022-10-28T08:28:26;18.70;78.10
70762;DHT22;58360;0.000;0.000;2022-10-28T08:30:52;18.80;77.90
70762;DHT22;58360;0.000;0.000;2022-10-28T08:33:18;18.80;77.90
70762;DHT22;58360;0.000;0.000;2022-10-28T08:35:49;18.80;77.50
70762;DHT22;58360;0.000;0.000;2022-10-28T08:38:15;18.90;77.80
70762;DHT22;58360;0.000;0.000;2022-10-28T08:43:43;18.90;77.80
70762;DHT22;58360;0.000;0.000;2022-10-28T08:46:18;19.00;77.30
70762;DHT22;58360;0.000;0.000;2022-10-28T08:48:47;19.00;77.60
70762;DHT22;58360;0.000;0.000;2022-10-28T08:54:00;19.00;77.60
70762;DHT22;58360;0.000;0.000;2022-10-28T08:56:33;18.90;77.80
70762;DHT22;58360;0.000;0.000;2022-10-28T08:59:03;19.00;77.60
70762;DHT22;58360;0.000;0.000;2022-10-28T09:01:46;19.10;77.10
70762;DHT22;58360;0.000;0.000;2022-10-28T09:04:37;19.20;77.40
70762;DHT22;58360;0.000;0.000;2022-10-28T09:07:04;19.20;77.30
70762;DHT22;58360;0.000;0.000;2022-10-28T09:09:31;19.20;76.80
70762;DHT22;58360;0.000;0.000;2022-10-28T09:12:37;19.20;77.20
70762;DHT22;58360;0.000;0.000;2022-10-28T09:18:16;19.30;77.30
70762;DHT22;58360;0.000;0.000;2022-10-28T09:20:55;19.50;76.40
70762;DHT22;58360;0.000;0.000;2022-10-28T09:23:27;19.60;76.20
70762;DHT22;58360;0.000;0.000;2022-10-28T09:31:43;19.90;75.60
70762;DHT22;58360;0.000;0.000;2022-10-28T09:37:19;20.20;73.90
70762;DHT22;58360;0.000;0.000;2022-10-28T09:39:50;20.40;73.00
70762;DHT22;58360;0.000;0.000;2022-10-28T09:42:26;20.40;72.30
70762;DHT22;58360;0.000;0.000;2022-10-28T09:45:03;20.60;72.50
70762;DHT22;58360;0.000;0.000;2022-10-28T09:47:41;20.70;72.40
70762;DHT22;58360;0.000;0.000;2022-10-28T09:50:18;20.80;71.40
70762;DHT22;58360;0.000;0.000;2022-10-28T09:55:21;20.90;71.50
70762;DHT22;58360;0.000;0.000;2022-10-28T09:57:47;21.00;70.10
70762;DHT22;58360;0.000;0.000;2022-10-28T10:00:14;21.10;70.90
70762;DHT22;58360;0.000;0.000;2022-10-28T10:02:40;21.20;70.30
70762;DHT22;58360;0.000;0.000;2022-10-28T10:05:13;21.20;69.40
70762;DHT22;58360;0.000;0.000;2022-10-28T10:07:43;21.50;69.00
70762;DHT22;58360;0.000;0.000;2022-10-28T10:10:16;21.60;68.60
70762;DHT22;58360;0.000;0.000;2022-10-28T10:12:44;21.60;67.90
70762;DHT22;58360;0.000;0.000;2022-10-28T10:15:18;21.80;66.70
70762;DHT22;58360;0.000;0.000;2022-10-28T10:17:46;21.90;67.60
70762;DHT22;58360;0.000;0.000;2022-10-28T10:20:17;21.90;66.70
70762;DHT22;58360;0.000;0.000;2022-10-28T10:22:45;22.10;66.70
70762;DHT22;58360;0.000;0.000;2022-10-28T10:30:21;22.20;65.90
70762;DHT22;58360;0.000;0.000;2022-10-28T10:32:47;22.40;66.00
70762;DHT22;58360;0.000;0.000;2022-10-28T10:35:20;22.50;64.70
70762;DHT22;58360;0.000;0.000;2022-10-28T10:37:47;22.60;64.60
70762;DHT22;58360;0.000;0.000;2022-10-28T10:40:23;22.90;62.20
70762;DHT22;58360;0.000;0.000;2022-10-28T10:42:50;22.80;63.20
70762;DHT22;58360;0.000;0.000;2022-10-28T10:45:24;22.90;62.30
70762;DHT22;58360;0.000;0.000;2022-10-28T10:48:14;22.80;61.50
70762;DHT22;58360;0.000;0.000;2022-10-28T10:50:46;22.90;62.30
70762;DHT22;58360;0.000;0.000;2022-10-28T10:53:28;22.90;61.80
70762;DHT22;58360;0.000;0.000;2022-10-28T10:56:00;23.00;60.50
70762;DHT22;58360;0.000;0.000;2022-10-28T10:58:33;23.10;60.20
70762;DHT22;58360;0.000;0.000;2022-10-28T11:01:02;23.30;59.80
70762;DHT22;58360;0.000;0.000;2022-10-28T11:03:37;23.20;61.40
70762;DHT22;58360;0.000;0.000;2022-10-28T11:06:06;23.20;60.60
70762;DHT22;58360;0.000;0.000;2022-10-28T11:08:41;23.10;59.30
70762;DHT22;58360;0.000;0.000;2022-10-28T11:11:12;23.10;59.60
70762;DHT22;58360;0.000;0.000;2022-10-28T11:13:38;23.30;60.00
70762;DHT22;58360;0.000;0.000;2022-10-28T11:16:14;23.40;59.40
70762;DHT22;58360;0.000;0.000;2022-10-28T11:18:43;23.40;59.00
70762;DHT22;58360;0.000;0.000;2022-10-28T11:24:29;23.40;58.80
70762;DHT22;58360;0.000;0.000;2022-10-28T11:27:07;23.30;58.60
70762;DHT22;58360;0.000;0.000;2022-10-28T11:29:35;23.30;59.70
70762;DHT22;58360;0.000;0.000;2022-10-28T11:34:58;23.20;59.30
70762;DHT22;58360;0.000;0.000;2022-10-28T11:43:23;23.40;59.70
70762;DHT22;58360;0.000;0.000;2022-10-28T11:51:41;23.50;58.70
70762;DHT22;58360;0.000;0.000;2022-10-28T11:57:08;23.30;60.40
70762;DHT22;58360;0.000;0.000;2022-10-28T12:08:20;23.10;60.60
70762;DHT22;58360;0.000;0.000;2022-10-28T12:13:37;23.00;60.30
70762;DHT22;58360;0.000;0.000;2022-10-28T12:18:56;22.80;61.10
70762;DHT22;58360;0.000;0.000;2022-10-28T12:23:53;22.80;61.50
70762;DHT22;58360;0.000;0.000;2022-10-28T12:26:39;22.80;62.10
70762;DHT22;58360;0.000;0.000;2022-10-28T12:29:25;22.60;62.40
70762;DHT22;58360;0.000;0.000;2022-10-28T12:32:08;22.60;62.40
70762;DHT22;58360;0.000;0.000;2022-10-28T12:34:40;22.60;62.40
70762;DHT22;58360;0.000;0.000;2022-10-28T12:37:12;22.70;62.20
70762;DHT22;58360;0.000;0.000;2022-10-28T12:39:55;22.60;62.50
70762;DHT22;58360;0.000;0.000;2022-10-28T12:42:34;22.70;63.00
70762;DHT22;58360;0.000;0.000;2022-10-28T12:45:06;22.60;62.70
70762;DHT22;58360;0.000;0.000;2022-10-28T12:50:32;22.90;61.70
70762;DHT22;58360;0.000;0.000;2022-10-28T12:53:41;23.00;62.30
70762;DHT22;58360;0.000;0.000;2022-10-28T12:56:25;23.00;62.80
70762;DHT22;58360;0.000;0.000;2022-10-28T13:01:26;23.30;61.30
70762;DHT22;58360;0.000;0.000;2022-10-28T13:03:53;23.30;61.70
70762;DHT22;58360;0.000;0.000;2022-10-28T13:06:44;23.40;60.70
70762;DHT22;58360;0.000;0.000;2022-10-28T13:28:47;23.30;62.70
70762;DHT22;58360;0.000;0.000;2022-10-28T13:31:14;23.30;62.40
70762;DHT22;58360;0.000;0.000;2022-10-28T13:33:49;23.30;62.80
70762;DHT22;58360;0.000;0.000;2022-10-28T13:36:34;23.40;61.70
70762;DHT22;58360;0.000;0.000;2022-10-28T13:39:04;23.50;61.40
70762;DHT22;58360;0.000;0.000;2022-10-28T13:41:38;23.40;62.60
70762;DHT22;58360;0.000;0.000;2022-10-28T13:47:02;23.20;62.60
70762;DHT22;58360;0.000;0.000;2022-10-28T13:49:30;23.20;62.50
70762;DHT22;58360;0.000;0.000;2022-10-28T13:59:58;23.10;62.00
70762;DHT22;58360;0.000;0.000;2022-10-28T14:02:39;23.20;62.20
70762;DHT22;58360;0.000;0.000;2022-10-28T14:05:09;23.20;62.90
70762;DHT22;58360;0.000;0.000;2022-10-28T14:07:42;23.20;62.50
70762;DHT22;58360;0.000;0.000;2022-10-28T14:10:27;23.20;62.40
70762;DHT22;58360;0.000;0.000;2022-10-28T14:12:57;23.30;62.30
70762;DHT22;58360;0.000;0.000;2022-10-28T14:15:32;23.20;61.80
70762;DHT22;58360;0.000;0.000;2022-10-28T14:20:52;23.20;63.50
70762;DHT22;58360;0.000;0.000;2022-10-28T14:41:59;22.90;63.30
70762;DHT22;58360;0.000;0.000;2022-10-28T14:50:37;22.90;64.10
70762;DHT22;58360;0.000;0.000;2022-10-28T14:53:09;22.90;63.60
70762;DHT22;58360;0.000;0.000;2022-10-28T14:55:38;23.00;63.60
70762;DHT22;58360;0.000;0.000;2022-10-28T15:00:44;22.90;63.80
70762;DHT22;58360;0.000;0.000;2022-10-28T15:03:13;22.70;64.00
70762;DHT22;58360;0.000;0.000;2022-10-28T15:05:39;22.70;64.00
70762;DHT22;58360;0.000;0.000;2022-10-28T15:08:05;22.80;63.70
70762;DHT22;58360;0.000;0.000;2022-10-28T15:10:32;22.80;64.00
70762;DHT22;58360;0.000;0.000;2022-10-28T15:12:59;22.80;64.80
70762;DHT22;58360;0.000;0.000;2022-10-28T15:15:26;22.70;63.90
70762;DHT22;58360;0.000;0.000;2022-10-28T15:17:53;22.70;64.50
70762;DHT22;58360;0.000;0.000;2022-10-28T15:20:23;22.60;64.80
70762;DHT22;58360;0.000;0.000;2022-10-28T15:22:49;22.50;64.80
70762;DHT22;58360;0.000;0.000;2022-10-28T15:25:17;22.50;64.80
70762;DHT22;58360;0.000;0.000;2022-10-28T15:27:45;22.50;65.20
70762;DHT22;58360;0.000;0.000;2022-10-28T15:30:29;22.40;65.70
70762;DHT22;58360;0.000;0.000;2022-10-28T15:33:18;22.30;66.60
70762;DHT22;58360;0.000;0.000;2022-10-28T15:35:45;22.30;66.30
70762;DHT22;58360;0.000;0.000;2022-10-28T15:40:45;22.10;66.90
70762;DHT22;58360;0.000;0.000;2022-10-28T15:43:19;22.00;67.30
70762;DHT22;58360;0.000;0.000;2022-10-28T15:45:47;21.90;67.70
70762;DHT22;58360;0.000;0.000;2022-10-28T15:48:17;21.80;68.00
70762;DHT22;58360;0.000;0.000;2022-10-28T15:51:24;21.70;68.40
70762;DHT22;58360;0.000;0.000;2022-10-28T15:53:51;21.80;68.20
70762;DHT22;58360;0.000;0.000;2022-10-28T15:56:30;21.70;68.50
70762;DHT22;58360;0.000;0.000;2022-10-28T16:01:41;21.60;69.20
70762;DHT22;58360;0.000;0.000;2022-10-28T16:07:06;21.40;69.80
70762;DHT22;58360;0.000;0.000;2022-10-28T16:09:41;21.40;70.30
70762;DHT22;58360;0.000;0.000;2022-10-28T16:12:14;21.40;69.80
70762;DHT22;58360;0.000;0.000;2022-10-28T16:14:43;21.40;70.10
70762;DHT22;58360;0.000;0.000;2022-10-28T16:17:20;21.40;69.90
70762;DHT22;58360;0.000;0.000;2022-10-28T16:22:24;21.30;70.00
70762;DHT22;58360;0.000;0.000;2022-10-28T16:24:51;21.30;70.30
70762;DHT22;58360;0.000;0.000;2022-10-28T16:27:29;21.20;70.60
70762;DHT22;58360;0.000;0.000;2022-10-28T16:29:55;21.10;71.20
70762;DHT22;58360;0.000;0.000;2022-10-28T16:32:30;21.10;71.60
70762;DHT22;58360;0.000;0.000;2022-10-28T16:34:57;21.00;71.50
70762;DHT22;58360;0.000;0.000;2022-10-28T16:37:31;20.90;72.10
70762;DHT22;58360;0.000;0.000;2022-10-28T16:39:57;20.80;72.40
70762;DHT22;58360;0.000;0.000;2022-10-28T16:42:23;20.80;72.20
70762;DHT22;58360;0.000;0.000;2022-10-28T16:44:49;20.80;72.30
70762;DHT22;58360;0.000;0.000;2022-10-28T16:47:17;20.80;72.20
70762;DHT22;58360;0.000;0.000;2022-10-28T16:49:43;20.70;72.90
70762;DHT22;58360;0.000;0.000;2022-10-28T16:52:16;20.70;73.20
70762;DHT22;58360;0.000;0.000;2022-10-28T16:54:42;20.70;73.00
70762;DHT22;58360;0.000;0.000;2022-10-28T16:57:07;20.60;72.90
70762;DHT22;58360;0.000;0.000;2022-10-28T16:59:33;20.70;72.70
70762;DHT22;58360;0.000;0.000;2022-10-28T17:01:59;20.60;72.90
70762;DHT22;58360;0.000;0.000;2022-10-28T17:04:25;20.50;72.90
70762;DHT22;58360;0.000;0.000;2022-10-28T17:06:50;20.50;73.70
70762;DHT22;58360;0.000;0.000;2022-10-28T17:09:16;20.40;74.10
70762;DHT22;58360;0.000;0.000;2022-10-28T17:11:42;20.40;73.90
70762;DHT22;58360;0.000;0.000;2022-10-28T17:14:07;20.40;74.10
70762;DHT22;58360;0.000;0.000;2022-10-28T17:16:33;20.30;74.10
70762;DHT22;58360;0.000;0.000;2022-10-28T17:18:59;20.40;74.10
70762;DHT22;58360;0.000;0.000;2022-10-28T17:21:24;20.40;73.80
70762;DHT22;58360;0.000;0.000;2022-10-28T17:23:50;20.40;74.30
70762;DHT22;58360;0.000;0.000;2022-10-28T17:26:16;20.30;74.20
70762;DHT22;58360;0.000;0.000;2022-10-28T17:28:42;20.30;74.20
70762;DHT22;58360;0.000;0.000;2022-10-28T17:31:08;20.30;74.30
70762;DHT22;58360;0.000;0.000;2022-10-28T17:33:34;20.30;74.40
70762;DHT22;58360;0.000;0.000;2022-10-28T17:36:04;20.20;74.70
70762;DHT22;58360;0.000;0.000;2022-10-28T17:38:31;20.20;75.00
70762;DHT22;58360;0.000;0.000;2022-10-28T17:40:56;20.20;75.20
70762;DHT22;58360;0.000;0.000;2022-10-28T17:43:23;20.30;74.80
70762;DHT22;58360;0.000;0.000;2022-10-28T17:45:49;20.20;74.90
70762;DHT22;58360;0.000;0.000;2022-10-28T17:48:15;20.20;74.80
70762;DHT22;58360;0.000;0.000;2022-10-28T17:50:40;20.30;74.90
70762;DHT22;58360;0.000;0.000;2022-10-28T17:53:08;20.20;75.30
70762;DHT22;58360;0.000;0.000;2022-10-28T17:55:34;20.10;75.70
70762;DHT22;58360;0.000;0.000;2022-10-28T17:58:00;20.00;76.10
70762;DHT22;58360;0.000;0.000;2022-10-28T18:00:25;19.90;76.50
70762;DHT22;58360;0.000;0.000;2022-10-28T18:02:57;19.80;76.70
70762;DHT22;58360;0.000;0.000;2022-10-28T18:05:23;19.70;76.80
70762;DHT22;58360;0.000;0.000;2022-10-28T18:07:48;19.60;77.20
70762;DHT22;58360;0.000;0.000;2022-10-28T18:10:17;19.60;77.40
70762;DHT22;58360;0.000;0.000;2022-10-28T18:12:43;19.60;77.70
70762;DHT22;58360;0.000;0.000;2022-10-28T18:15:09;19.60;77.30
70762;DHT22;58360;0.000;0.000;2022-10-28T18:17:35;19.50;77.00
70762;DHT22;58360;0.000;0.000;2022-10-28T18:20:01;19.60;77.10
70762;DHT22;58360;0.000;0.000;2022-10-28T18:22:27;19.50;77.40
70762;DHT22;58360;0.000;0.000;2022-10-28T18:24:53;19.50;77.70
70762;DHT22;58360;0.000;0.000;2022-10-28T18:27:21;19.50;77.50
70762;DHT22;58360;0.000;0.000;2022-10-28T18:29:46;19.30;78.10
70762;DHT22;58360;0.000;0.000;2022-10-28T18:32:12;19.40;78.30
70762;DHT22;58360;0.000;0.000;2022-10-28T18:34:37;19.30;78.30
70762;DHT22;58360;0.000;0.000;2022-10-28T18:37:03;19.30;78.00
70762;DHT22;58360;0.000;0.000;2022-10-28T18:39:32;19.30;78.10
70762;DHT22;58360;0.000;0.000;2022-10-28T18:41:58;19.20;78.30
70762;DHT22;58360;0.000;0.000;2022-10-28T18:44:23;19.10;78.70
70762;DHT22;58360;0.000;0.000;2022-10-28T18:46:58;19.10;78.80
70762;DHT22;58360;0.000;0.000;2022-10-28T18:49:24;19.00;79.30
70762;DHT22;58360;0.000;0.000;2022-10-28T18:51:50;18.90;79.80
70762;DHT22;58360;0.000;0.000;2022-10-28T18:54:15;18.90;80.00
70762;DHT22;58360;0.000;0.000;2022-10-28T18:56:41;18.90;80.00
70762;DHT22;58360;0.000;0.000;2022-10-28T18:59:06;19.00;80.00